createdAt,value
2017-10-23T00:00:15.494Z,1006.88
2017-10-23T00:00:55.970Z,1006.9
2017-10-23T00:01:36.455Z,1006.9
2017-10-23T00:02:16.833Z,1006.89
2017-10-23T00:02:57.233Z,1006.87
2017-10-23T00:03:37.617Z,1006.89
2017-10-23T00:04:18.056Z,1006.92
2017-10-23T00:04:58.490Z,1006.9
2017-10-23T00:05:38.895Z,1006.93
2017-10-23T00:06:19.346Z,1006.89
2017-10-23T00:06:59.752Z,1006.9
2017-10-23T00:07:40.202Z,1006.94
2017-10-23T00:08:25.320Z,1006.94
2017-10-23T00:09:05.686Z,1006.93
2017-10-23T00:09:46.207Z,1006.96
2017-10-23T00:10:26.613Z,1006.94
2017-10-23T00:11:06.995Z,1006.87
2017-10-23T00:11:47.363Z,1006.93
2017-10-23T00:12:27.853Z,1006.96
2017-10-23T00:13:08.297Z,1006.99
2017-10-23T00:13:49.344Z,1006.99
2017-10-23T00:14:29.908Z,1006.98
2017-10-23T00:15:10.437Z,1007
2017-10-23T00:15:50.818Z,1006.97
2017-10-23T00:16:32.972Z,1007.01
2017-10-23T00:17:13.022Z,1006.99
2017-10-23T00:17:53.672Z,1007.03
2017-10-23T00:18:34.046Z,1006.97
2017-10-23T00:19:15.513Z,1007.03
2017-10-23T00:19:55.919Z,1007.08
2017-10-23T00:20:36.416Z,1007.04
2017-10-23T00:21:17.627Z,1007.03
2017-10-23T00:21:58.167Z,1007
2017-10-23T00:22:40.239Z,1007.09
2017-10-23T00:23:20.798Z,1007.03
2017-10-23T00:24:01.215Z,1007.06
2017-10-23T00:24:41.616Z,1007.04
2017-10-23T00:25:22.079Z,1007.04
2017-10-23T00:26:02.555Z,1007.05
2017-10-23T00:26:43.232Z,1007.12
2017-10-23T00:27:23.575Z,1007.07
2017-10-23T00:28:04.054Z,1007.07
2017-10-23T00:28:44.545Z,1007.1
2017-10-23T00:29:25.818Z,1007.09
2017-10-23T00:30:06.261Z,1007.14
2017-10-23T00:30:46.639Z,1007.1
2017-10-23T00:31:27.072Z,1007.08
2017-10-23T00:32:07.500Z,1007.15
2017-10-23T00:32:47.992Z,1007.05
2017-10-23T00:33:28.411Z,1007.04
2017-10-23T00:34:08.861Z,1007.03
2017-10-23T00:34:49.351Z,1007.04
2017-10-23T00:35:29.749Z,1007.01
2017-10-23T00:36:10.137Z,1007
2017-10-23T00:36:50.544Z,1007
2017-10-23T00:37:30.948Z,1007.01
2017-10-23T00:38:11.429Z,1007.02
2017-10-23T00:38:52.468Z,1006.97
2017-10-23T00:39:33.041Z,1006.99
2017-10-23T00:40:13.409Z,1007.07
2017-10-23T00:40:53.831Z,1007.03
2017-10-23T00:41:34.260Z,1007.05
2017-10-23T00:42:14.733Z,1007.07
2017-10-23T00:42:55.234Z,1007.11
2017-10-23T00:43:36.028Z,1007.02
2017-10-23T00:44:16.437Z,1007.02
2017-10-23T00:44:57.114Z,1007.03
2017-10-23T00:45:37.472Z,1007
2017-10-23T00:46:17.996Z,1007.08
2017-10-23T00:46:58.435Z,1007.09
2017-10-23T00:47:40.172Z,1007.05
2017-10-23T00:48:20.192Z,1007.09
2017-10-23T00:49:00.824Z,1007.07
2017-10-23T00:49:41.165Z,1007.11
2017-10-23T00:50:21.546Z,1007.11
2017-10-23T00:51:01.947Z,1007.09
2017-10-23T00:51:42.329Z,1007.1
2017-10-23T00:52:22.726Z,1007.03
2017-10-23T00:53:03.151Z,1007.13
2017-10-23T00:53:43.633Z,1007.12
2017-10-23T00:54:24.119Z,1007.11
2017-10-23T00:55:04.672Z,1007.12
2017-10-23T00:55:45.094Z,1007.12
2017-10-23T00:56:25.549Z,1007.17
2017-10-23T00:57:06.009Z,1007.09
2017-10-23T00:57:46.447Z,1007.06
2017-10-23T00:58:26.902Z,1007.12
2017-10-23T00:59:09.110Z,1007.09
2017-10-23T00:59:50.041Z,1007.07
2017-10-23T01:00:30.747Z,1007.08
2017-10-23T01:01:11.159Z,1007.08
2017-10-23T01:01:51.559Z,1007.13
2017-10-23T01:02:32.020Z,1007.11
2017-10-23T01:03:12.350Z,1007.11
2017-10-23T01:03:52.773Z,1007.16
2017-10-23T01:04:33.913Z,1007.12
2017-10-23T01:05:15.961Z,1007.11
2017-10-23T01:05:56.429Z,1007.1
2017-10-23T01:06:36.884Z,1007.11
2017-10-23T01:07:17.356Z,1007.18
2017-10-23T01:07:57.753Z,1007.16
2017-10-23T01:08:38.116Z,1007.19
2017-10-23T01:09:18.842Z,1007.16
2017-10-23T01:09:59.223Z,1007.16
2017-10-23T01:10:39.635Z,1007.22
2017-10-23T01:11:19.961Z,1007.19
2017-10-23T01:12:00.482Z,1007.2
2017-10-23T01:12:40.893Z,1007.21
2017-10-23T01:13:21.232Z,1007.23
2017-10-23T01:14:01.639Z,1007.15
2017-10-23T01:14:41.992Z,1007.16
2017-10-23T01:15:22.472Z,1007.17
2017-10-23T01:16:02.821Z,1007.16
2017-10-23T01:16:43.269Z,1007.15
2017-10-23T01:17:23.620Z,1007.16
2017-10-23T01:18:04.312Z,1007.12
2017-10-23T01:18:44.778Z,1007.15
2017-10-23T01:19:25.220Z,1007.11
2017-10-23T01:20:06.116Z,1007.16
2017-10-23T01:20:46.129Z,1007.14
2017-10-23T01:21:27.144Z,1007.13
2017-10-23T01:22:07.498Z,1007.14
2017-10-23T01:22:47.926Z,1007.14
2017-10-23T01:23:28.386Z,1007.19
2017-10-23T01:24:08.848Z,1007.12
2017-10-23T01:24:49.222Z,1007.11
2017-10-23T01:25:29.638Z,1007.09
2017-10-23T01:26:10.227Z,1007.13
2017-10-23T01:26:53.784Z,1007.06
2017-10-23T01:27:34.233Z,1007.09
2017-10-23T01:28:14.673Z,1007.11
2017-10-23T01:28:55.127Z,1007.06
2017-10-23T01:29:35.446Z,1007.11
2017-10-23T01:30:15.830Z,1007.04
2017-10-23T01:30:56.291Z,1007.09
2017-10-23T01:31:37.364Z,1007.09
2017-10-23T01:32:17.835Z,1007.04
2017-10-23T01:32:58.183Z,1007.04
2017-10-23T01:33:38.681Z,1007.07
2017-10-23T01:34:19.134Z,1007.07
2017-10-23T01:34:59.540Z,1007.09
2017-10-23T01:35:40.860Z,1007.04
2017-10-23T01:36:21.645Z,1007
2017-10-23T01:37:03.075Z,1007.02
2017-10-23T01:37:43.485Z,1006.94
2017-10-23T01:38:23.894Z,1007.05
2017-10-23T01:39:04.386Z,1007.04
2017-10-23T01:39:44.787Z,1007.03
2017-10-23T01:40:26.971Z,1007
2017-10-23T01:41:07.642Z,1007.05
2017-10-23T01:41:48.622Z,1006.98
2017-10-23T01:42:30.108Z,1006.99
2017-10-23T01:43:11.563Z,1007.06
2017-10-23T01:43:51.650Z,1007.02
2017-10-23T01:44:32.234Z,1007.05
2017-10-23T01:45:12.641Z,1006.97
2017-10-23T01:45:53.285Z,1007.08
2017-10-23T01:46:35.332Z,1007.04
2017-10-23T01:47:15.862Z,1007.09
2017-10-23T01:47:56.340Z,1007.1
2017-10-23T01:48:36.614Z,1007.1
2017-10-23T01:49:20.421Z,1007.03
2017-10-23T01:50:01.587Z,1007.14
2017-10-23T01:50:43.410Z,1007.14
2017-10-23T01:51:26.167Z,1007.16
2017-10-23T01:52:06.855Z,1007.19
2017-10-23T01:52:47.552Z,1007.21
2017-10-23T01:53:28.025Z,1007.2
2017-10-23T01:54:08.349Z,1007.18
2017-10-23T01:54:48.769Z,1007.19
2017-10-23T01:55:29.167Z,1007.24
2017-10-23T01:56:10.214Z,1007.21
2017-10-23T01:56:50.621Z,1007.14
2017-10-23T01:57:31.130Z,1007.27
2017-10-23T01:58:11.607Z,1007.24
2017-10-23T01:58:51.925Z,1007.21
2017-10-23T01:59:33.438Z,1007.17
2017-10-23T02:00:14.020Z,1007.26
2017-10-23T02:00:54.534Z,1007.24
2017-10-23T02:01:35.417Z,1007.26
2017-10-23T02:02:17.631Z,1007.2
2017-10-23T02:02:58.140Z,1007.2
2017-10-23T02:03:38.579Z,1007.21
2017-10-23T02:04:18.968Z,1007.23
2017-10-23T02:04:59.387Z,1007.21
2017-10-23T02:05:39.864Z,1007.21
2017-10-23T02:06:20.251Z,1007.21
2017-10-23T02:07:00.720Z,1007.22
2017-10-23T02:07:43.024Z,1007.2
2017-10-23T02:08:23.524Z,1007.25
2017-10-23T02:09:03.916Z,1007.24
2017-10-23T02:09:44.394Z,1007.19
2017-10-23T02:10:24.804Z,1007.25
2017-10-23T02:11:05.149Z,1007.22
2017-10-23T02:11:45.548Z,1007.27
2017-10-23T02:12:26.067Z,1007.23
2017-10-23T02:13:06.406Z,1007.31
2017-10-23T02:13:47.024Z,1007.25
2017-10-23T02:14:27.457Z,1007.29
2017-10-23T02:15:07.834Z,1007.3
2017-10-23T02:15:48.237Z,1007.24
2017-10-23T02:16:29.792Z,1007.27
2017-10-23T02:17:10.199Z,1007.27
2017-10-23T02:17:50.912Z,1007.27
2017-10-23T02:18:31.321Z,1007.33
2017-10-23T02:19:11.652Z,1007.3
2017-10-23T02:19:52.045Z,1007.31
2017-10-23T02:20:33.306Z,1007.33
2017-10-23T02:21:13.804Z,1007.28
2017-10-23T02:21:54.357Z,1007.32
2017-10-23T02:22:35.029Z,1007.31
2017-10-23T02:23:15.692Z,1007.3
2017-10-23T02:23:55.826Z,1007.29
2017-10-23T02:24:36.360Z,1007.24
2017-10-23T02:25:16.794Z,1007.3
2017-10-23T02:25:57.182Z,1007.3
2017-10-23T02:26:37.651Z,1007.33
2017-10-23T02:27:18.073Z,1007.3
2017-10-23T02:27:59.473Z,1007.25
2017-10-23T02:28:39.989Z,1007.27
2017-10-23T02:29:20.370Z,1007.29
2017-10-23T02:30:00.805Z,1007.33
2017-10-23T02:30:41.441Z,1007.31
2017-10-23T02:31:21.769Z,1007.27
2017-10-23T02:32:02.070Z,1007.33
2017-10-23T02:32:42.496Z,1007.31
2017-10-23T02:33:23.036Z,1007.34
2017-10-23T02:34:03.420Z,1007.37
2017-10-23T02:34:43.761Z,1007.35
2017-10-23T02:35:24.264Z,1007.37
2017-10-23T02:36:04.697Z,1007.39
2017-10-23T02:36:45.215Z,1007.42
2017-10-23T02:37:25.655Z,1007.4
2017-10-23T02:38:06.007Z,1007.4
2017-10-23T02:38:46.960Z,1007.39
2017-10-23T02:39:27.677Z,1007.37
2017-10-23T02:40:07.911Z,1007.29
2017-10-23T02:40:48.366Z,1007.36
2017-10-23T02:41:28.707Z,1007.4
2017-10-23T02:43:59.045Z,1007.39
2017-10-23T02:44:52.048Z,1007.39
2017-10-23T02:45:44.074Z,1007.4
2017-10-23T02:46:36.533Z,1007.45
2017-10-23T02:47:26.953Z,1007.44
2017-10-23T02:48:20.266Z,1007.39
2017-10-23T02:49:12.457Z,1007.38
2017-10-23T02:50:05.875Z,1007.46
2017-10-23T02:50:58.093Z,1007.44
2017-10-23T02:51:48.846Z,1007.43
2017-10-23T02:54:24.827Z,1007.34
2017-10-23T02:55:18.512Z,1007.44
2017-10-23T02:56:11.133Z,1007.48
2017-10-23T02:58:53.847Z,1007.48
2017-10-23T02:59:33.938Z,1007.5
2017-10-23T03:00:14.343Z,1007.47
2017-10-23T03:00:54.834Z,1007.48
2017-10-23T03:01:35.435Z,1007.52
2017-10-23T03:02:16.022Z,1007.49
2017-10-23T03:02:56.513Z,1007.52
2017-10-23T03:03:36.859Z,1007.51
2017-10-23T03:04:17.301Z,1007.56
2017-10-23T03:04:57.962Z,1007.52
2017-10-23T03:05:38.292Z,1007.57
2017-10-23T03:06:18.661Z,1007.6
2017-10-23T03:06:59.088Z,1007.53
2017-10-23T03:07:39.561Z,1007.6
2017-10-23T03:08:20.422Z,1007.58
2017-10-23T03:09:01.071Z,1007.57
2017-10-23T03:09:41.606Z,1007.57
2017-10-23T03:10:24.621Z,1007.59
2017-10-23T03:11:05.028Z,1007.61
2017-10-23T03:11:45.437Z,1007.63
2017-10-23T03:12:25.994Z,1007.63
2017-10-23T03:13:06.423Z,1007.65
2017-10-23T03:13:46.780Z,1007.6
2017-10-23T03:14:27.349Z,1007.64
2017-10-23T03:15:07.608Z,1007.65
2017-10-23T03:15:48.136Z,1007.65
2017-10-23T03:16:28.584Z,1007.68
2017-10-23T03:17:11.119Z,1007.63
2017-10-23T03:17:51.557Z,1007.72
2017-10-23T03:18:32.509Z,1007.65
2017-10-23T03:19:12.797Z,1007.7
2017-10-23T03:19:54.436Z,1007.74
2017-10-23T03:20:36.899Z,1007.67
2017-10-23T03:21:17.296Z,1007.73
2017-10-23T03:21:58.420Z,1007.66
2017-10-23T03:22:40.893Z,1007.68
2017-10-23T03:23:21.567Z,1007.69
2017-10-23T03:24:02.571Z,1007.72
2017-10-23T03:24:43.322Z,1007.71
2017-10-23T03:25:23.409Z,1007.73
2017-10-23T03:26:03.804Z,1007.76
2017-10-23T03:26:44.882Z,1007.74
2017-10-23T03:27:25.309Z,1007.76
2017-10-23T03:28:06.500Z,1007.79
2017-10-23T03:28:46.881Z,1007.82
2017-10-23T03:29:27.218Z,1007.75
2017-10-23T03:30:08.026Z,1007.76
2017-10-23T03:30:48.530Z,1007.76
2017-10-23T03:31:29.014Z,1007.74
2017-10-23T03:32:09.901Z,1007.73
2017-10-23T03:32:50.449Z,1007.82
2017-10-23T03:33:31.202Z,1007.79
2017-10-23T03:34:11.609Z,1007.8
2017-10-23T03:34:53.440Z,1007.82
2017-10-23T03:35:34.070Z,1007.81
2017-10-23T03:36:15.274Z,1007.82
2017-10-23T03:36:55.804Z,1007.81
2017-10-23T03:37:36.104Z,1007.87
2017-10-23T03:38:16.858Z,1007.84
2017-10-23T03:38:57.299Z,1007.89
2017-10-23T03:39:37.691Z,1007.89
2017-10-23T03:40:18.069Z,1007.96
2017-10-23T03:40:58.692Z,1007.93
2017-10-23T03:41:39.404Z,1007.85
2017-10-23T03:42:21.600Z,1007.9
2017-10-23T03:43:01.890Z,1007.93
2017-10-23T03:43:42.348Z,1007.92
2017-10-23T03:44:22.737Z,1007.92
2017-10-23T03:45:04.464Z,1007.88
2017-10-23T03:45:45.027Z,1007.84
2017-10-23T03:46:25.278Z,1007.94
2017-10-23T03:47:05.717Z,1007.92
2017-10-23T03:47:46.144Z,1007.91
2017-10-23T03:48:26.669Z,1007.91
2017-10-23T03:49:09.200Z,1007.9
2017-10-23T03:49:49.614Z,1007.87
2017-10-23T03:50:30.027Z,1007.86
2017-10-23T03:51:11.375Z,1007.92
2017-10-23T03:51:51.761Z,1007.95
2017-10-23T03:52:32.291Z,1007.91
2017-10-23T03:53:12.693Z,1007.9
2017-10-23T03:53:54.328Z,1007.89
2017-10-23T03:54:35.503Z,1007.9
2017-10-23T03:55:15.852Z,1007.92
2017-10-23T03:55:56.472Z,1007.93
2017-10-23T03:56:36.785Z,1007.92
2017-10-23T03:57:17.142Z,1007.95
2017-10-23T03:57:57.516Z,1007.96
2017-10-23T03:58:37.972Z,1007.98
2017-10-23T03:59:18.334Z,1007.97
2017-10-23T03:59:58.777Z,1008.04
2017-10-23T04:00:39.592Z,1008.02
2017-10-23T04:01:19.838Z,1008.01
2017-10-23T04:02:00.269Z,1008.06
2017-10-23T04:41:42.151Z,1008.05
2017-10-23T04:42:23.621Z,1008.07
2017-10-23T04:43:04.672Z,1008.06
2017-10-23T04:43:45.916Z,1008.01
2017-10-23T04:44:27.800Z,1008.12
2017-10-23T04:45:08.174Z,1008.07
2017-10-23T04:45:49.561Z,1008.07
2017-10-23T04:46:30.400Z,1008.08
2017-10-23T04:47:11.170Z,1008.03
2017-10-23T04:47:52.513Z,1008.09
2017-10-23T04:48:32.910Z,1008.13
2017-10-23T04:49:13.591Z,1008.1
2017-10-23T04:49:54.761Z,1008.21
2017-10-23T04:50:35.324Z,1008.23
2017-10-23T04:51:15.998Z,1008.19
2017-10-23T04:51:57.652Z,1008.23
2017-10-23T04:52:38.289Z,1008.23
2017-10-23T04:53:18.707Z,1008.21
2017-10-23T04:54:00.247Z,1008.25
2017-10-23T04:54:40.649Z,1008.25
2017-10-23T04:55:22.437Z,1008.26
2017-10-23T04:56:03.109Z,1008.26
2017-10-23T04:56:43.211Z,1008.23
2017-10-23T04:57:23.912Z,1008.23
2017-10-23T04:58:04.358Z,1008.22
2017-10-23T04:58:45.346Z,1008.27
2017-10-23T04:59:27.129Z,1008.24
2017-10-23T05:00:07.759Z,1008.24
2017-10-23T05:00:49.894Z,1008.22
2017-10-23T05:01:30.257Z,1008.25
2017-10-23T05:02:13.279Z,1008.24
2017-10-23T05:02:54.327Z,1008.29
2017-10-23T05:03:34.874Z,1008.28
2017-10-23T05:04:15.318Z,1008.3
2017-10-23T05:04:55.875Z,1008.27
2017-10-23T05:05:36.867Z,1008.3
2017-10-23T05:06:19.022Z,1008.22
2017-10-23T05:06:59.611Z,1008.29
2017-10-23T05:07:40.092Z,1008.23
2017-10-23T05:08:22.221Z,1008.22
2017-10-23T05:09:02.807Z,1008.24
2017-10-23T05:09:43.337Z,1008.27
2017-10-23T05:10:25.877Z,1008.27
2017-10-23T05:11:06.589Z,1008.24
2017-10-23T05:11:48.040Z,1008.31
2017-10-23T05:12:29.470Z,1008.26
2017-10-23T05:13:12.819Z,1008.27
2017-10-23T05:13:53.377Z,1008.19
2017-10-23T05:14:33.878Z,1008.21
2017-10-23T05:15:15.171Z,1008.16
2017-10-23T05:15:55.656Z,1008.2
2017-10-23T05:16:36.130Z,1008.18
2017-10-23T05:17:18.478Z,1008.23
2017-10-23T05:17:59.134Z,1008.23
2017-10-23T05:18:39.777Z,1008.21
2017-10-23T05:19:20.156Z,1008.22
2017-10-23T05:20:00.645Z,1008.2
2017-10-23T05:20:41.300Z,1008.23
2017-10-23T05:21:21.511Z,1008.24
2017-10-23T05:22:03.479Z,1008.25
2017-10-23T05:22:44.124Z,1008.27
2017-10-23T05:23:24.855Z,1008.28
2017-10-23T05:24:05.807Z,1008.27
2017-10-23T05:24:46.401Z,1008.27
2017-10-23T05:25:27.532Z,1008.28
2017-10-23T05:26:08.190Z,1008.24
2017-10-23T05:26:54.591Z,1008.27
2017-10-23T05:29:33.250Z,1008.23
2017-10-23T05:30:26.566Z,1008.26
2017-10-23T05:31:13.072Z,1008.29
2017-10-23T05:31:54.784Z,1008.21
2017-10-23T05:32:35.437Z,1008.22
2017-10-23T05:33:16.318Z,1008.24
2017-10-23T05:33:58.888Z,1008.26
2017-10-23T05:35:25.681Z,1008.25
2017-10-23T05:36:06.156Z,1008.15
2017-10-23T05:36:46.616Z,1008.21
2017-10-23T05:37:27.160Z,1008.15
2017-10-23T05:38:07.604Z,1008.21
2017-10-23T05:38:48.067Z,1008.25
2017-10-23T05:39:28.653Z,1008.26
2017-10-23T05:40:09.859Z,1008.16
2017-10-23T05:40:50.837Z,1008.18
2017-10-23T05:41:32.153Z,1008.21
2017-10-23T05:42:11.866Z,1008.21
2017-10-23T05:42:52.270Z,1008.23
2017-10-23T05:43:33.107Z,1008.23
2017-10-23T05:44:13.456Z,1008.19
2017-10-23T05:44:53.990Z,1008.12
2017-10-23T05:45:34.422Z,1008.22
2017-10-23T05:46:15.866Z,1008.25
2017-10-23T05:46:56.723Z,1008.18
2017-10-23T05:47:37.291Z,1008.19
2017-10-23T05:48:17.795Z,1008.18
2017-10-23T05:48:58.332Z,1008.15
2017-10-23T05:49:41.719Z,1008.17
2017-10-23T05:50:22.279Z,1008.17
2017-10-23T05:51:02.968Z,1008.25
2017-10-23T05:51:44.113Z,1008.23
2017-10-23T05:52:24.914Z,1008.28
2017-10-23T05:53:05.406Z,1008.27
2017-10-23T05:53:47.339Z,1008.25
2017-10-23T05:54:27.737Z,1008.29
2017-10-23T05:55:08.845Z,1008.3
2017-10-23T05:55:49.299Z,1008.36
2017-10-23T05:56:29.802Z,1008.38
2017-10-23T05:57:10.199Z,1008.32
2017-10-23T05:57:51.556Z,1008.39
2017-10-23T05:58:32.631Z,1008.41
2017-10-23T05:59:12.866Z,1008.41
2017-10-23T05:59:53.358Z,1008.41
2017-10-23T06:00:33.764Z,1008.39
2017-10-23T06:01:14.255Z,1008.43
2017-10-23T06:01:55.886Z,1008.43
2017-10-23T06:02:36.446Z,1008.43
2017-10-23T06:03:16.991Z,1008.47
2017-10-23T06:03:57.584Z,1008.4
2017-10-23T06:04:38.113Z,1008.44
2017-10-23T06:05:18.509Z,1008.44
2017-10-23T06:05:58.983Z,1008.51
2017-10-23T06:06:39.334Z,1008.49
2017-10-23T06:07:19.983Z,1008.51
2017-10-23T06:08:00.424Z,1008.55
2017-10-23T06:08:41.045Z,1008.57
2017-10-23T06:09:22.272Z,1008.61
2017-10-23T06:10:03.084Z,1008.6
2017-10-23T06:10:43.617Z,1008.62
2017-10-23T06:11:24.190Z,1008.59
2017-10-23T06:12:04.578Z,1008.61
2017-10-23T06:12:45.322Z,1008.64
2017-10-23T06:13:26.167Z,1008.62
2017-10-23T06:14:06.380Z,1008.62
2017-10-23T06:14:46.940Z,1008.61
2017-10-23T06:15:27.430Z,1008.63
2017-10-23T06:16:10.324Z,1008.66
2017-10-23T06:16:50.824Z,1008.67
2017-10-23T06:17:31.505Z,1008.64
2017-10-23T06:18:15.720Z,1008.63
2017-10-23T06:18:58.420Z,1008.64
2017-10-23T06:19:40.143Z,1008.59
2017-10-23T06:20:23.378Z,1008.66
2017-10-23T06:21:03.992Z,1008.66
2017-10-23T06:21:45.398Z,1008.71
2017-10-23T06:22:26.126Z,1008.68
2017-10-23T06:23:06.704Z,1008.68
2017-10-23T06:23:46.953Z,1008.67
2017-10-23T06:24:27.762Z,1008.69
2017-10-23T06:25:08.597Z,1008.68
2017-10-23T06:25:51.108Z,1008.7
2017-10-23T06:26:34.440Z,1008.71
2017-10-23T06:27:14.826Z,1008.71
2017-10-23T06:27:55.623Z,1008.74
2017-10-23T06:28:37.424Z,1008.76
2017-10-23T06:29:18.069Z,1008.78
2017-10-23T06:30:01.072Z,1008.75
2017-10-23T06:30:42.187Z,1008.79
2017-10-23T06:31:22.949Z,1008.8
2017-10-23T06:32:09.043Z,1008.84
2017-10-23T06:32:49.670Z,1008.84
2017-10-23T06:33:30.153Z,1008.85
2017-10-23T06:34:10.603Z,1008.84
2017-10-23T06:34:51.107Z,1008.8
2017-10-23T06:35:31.411Z,1008.87
2017-10-23T06:36:12.084Z,1008.88
2017-10-23T06:36:52.771Z,1008.81
2017-10-23T06:37:40.315Z,1008.88
2017-10-23T06:38:20.837Z,1008.89
2017-10-23T06:39:01.651Z,1008.87
2017-10-23T06:39:42.933Z,1008.87
2017-10-23T06:40:23.412Z,1008.9
2017-10-23T06:41:03.903Z,1008.9
2017-10-23T06:41:44.309Z,1008.93
2017-10-23T06:42:26.342Z,1008.92
2017-10-23T06:43:06.640Z,1008.96
2017-10-23T06:43:47.104Z,1008.9
2017-10-23T06:44:27.994Z,1008.94
2017-10-23T06:45:08.902Z,1008.96
2017-10-23T06:45:49.577Z,1008.9
2017-10-23T06:46:30.514Z,1008.94
2017-10-23T06:47:11.295Z,1008.92
2017-10-23T06:47:52.201Z,1008.94
2017-10-23T06:48:32.662Z,1008.9
2017-10-23T06:49:13.130Z,1008.88
2017-10-23T06:49:53.572Z,1008.87
2017-10-23T06:50:34.066Z,1008.91
2017-10-23T06:51:15.463Z,1008.89
2017-10-23T06:51:56.050Z,1008.9
2017-10-23T06:52:36.535Z,1008.87
2017-10-23T06:53:16.873Z,1008.86
2017-10-23T06:53:57.638Z,1008.83
2017-10-23T06:54:38.073Z,1008.85
2017-10-23T06:55:18.571Z,1008.85
2017-10-23T06:55:59.063Z,1008.87
2017-10-23T06:58:21.513Z,1008.87
2017-10-23T06:59:14.464Z,1008.86
2017-10-23T07:00:07.598Z,1008.9
2017-10-23T07:01:03.989Z,1008.91
2017-10-23T07:02:00.194Z,1008.86
2017-10-23T07:02:47.290Z,1008.88
2017-10-23T07:03:28.826Z,1008.89
2017-10-23T07:04:09.913Z,1008.88
2017-10-23T07:04:50.441Z,1008.85
2017-10-23T07:05:32.490Z,1008.87
2017-10-23T07:06:43.249Z,1008.91
2017-10-23T07:07:24.556Z,1008.9
2017-10-23T07:08:04.956Z,1008.95
2017-10-23T07:08:45.452Z,1008.95
2017-10-23T07:09:25.830Z,1008.97
2017-10-23T07:10:06.711Z,1008.96
2017-10-23T07:10:46.799Z,1008.95
2017-10-23T07:11:27.293Z,1008.94
2017-10-23T07:12:07.608Z,1008.9
2017-10-23T07:12:48.040Z,1008.92
2017-10-23T07:13:28.447Z,1008.95
2017-10-23T07:14:10.443Z,1008.94
2017-10-23T07:14:51.271Z,1008.94
2017-10-23T07:15:32.087Z,1008.98
2017-10-23T07:16:12.756Z,1008.96
2017-10-23T07:16:53.207Z,1009.03
2017-10-23T07:17:34.689Z,1008.97
2017-10-23T07:18:15.989Z,1008.98
2017-10-23T07:18:56.880Z,1008.99
2017-10-23T07:19:37.991Z,1008.98
2017-10-23T07:20:18.517Z,1009
2017-10-23T07:20:59.027Z,1009.02
2017-10-23T07:21:39.624Z,1008.98
2017-10-23T07:22:20.215Z,1009.03
2017-10-23T07:23:00.641Z,1008.98
2017-10-23T07:23:41.256Z,1009
2017-10-23T07:26:28.154Z,1009.01
2017-10-23T07:27:17.273Z,1009.01
2017-10-23T07:28:07.618Z,1008.98
2017-10-23T07:29:00.733Z,1009.03
2017-10-23T07:29:48.539Z,1009.02
2017-10-23T07:32:16.314Z,1009.01
2017-10-23T07:33:10.511Z,1008.98
2017-10-23T07:34:04.922Z,1009
2017-10-23T07:34:46.984Z,1009
2017-10-23T07:35:27.391Z,1008.99
2017-10-23T07:36:08.888Z,1008.98
2017-10-23T07:36:48.469Z,1008.96
2017-10-23T07:37:28.864Z,1008.97
2017-10-23T07:38:10.200Z,1008.94
2017-10-23T07:38:50.803Z,1008.95
2017-10-23T07:39:32.966Z,1008.96
2017-10-23T07:40:13.128Z,1009
2017-10-23T07:40:53.635Z,1009.03
2017-10-23T07:41:33.917Z,1008.96
2017-10-23T07:42:14.858Z,1009.01
2017-10-23T07:42:55.229Z,1008.99
2017-10-23T07:43:35.598Z,1008.98
2017-10-23T07:44:16.127Z,1009
2017-10-23T07:44:56.573Z,1008.97
2017-10-23T07:45:37.082Z,1008.98
2017-10-23T07:46:17.487Z,1008.95
2017-10-23T07:47:03.524Z,1008.94
2017-10-23T07:47:44.744Z,1008.95
2017-10-23T07:48:25.855Z,1008.96
2017-10-23T07:49:06.343Z,1008.94
2017-10-23T07:49:46.788Z,1008.96
2017-10-23T07:50:27.406Z,1008.98
2017-10-23T07:51:08.576Z,1008.99
2017-10-23T07:53:30.801Z,1009.01
2017-10-23T07:54:11.961Z,1009
2017-10-23T07:54:53.132Z,1009.06
2017-10-23T07:55:35.270Z,1009.05
2017-10-23T07:56:16.657Z,1009.03
2017-10-23T07:56:56.565Z,1009.02
2017-10-23T07:57:38.246Z,1009.03
2017-10-23T07:58:20.484Z,1009.09
2017-10-23T07:59:00.827Z,1009.11
2017-10-23T07:59:42.955Z,1009.12
2017-10-23T08:00:23.442Z,1009.1
2017-10-23T08:01:05.942Z,1009.15
2017-10-23T08:01:46.346Z,1009.1
2017-10-23T08:02:29.671Z,1009.14
2017-10-23T08:03:10.329Z,1009.13
2017-10-23T08:03:51.173Z,1009.09
2017-10-23T08:04:31.748Z,1009.09
2017-10-23T08:05:12.415Z,1009.1
2017-10-23T08:05:53.100Z,1009.13
2017-10-23T08:06:33.493Z,1009.12
2017-10-23T08:07:13.960Z,1009.1
2017-10-23T08:07:55.132Z,1009.12
2017-10-23T08:08:36.400Z,1009.07
2017-10-23T08:09:16.914Z,1009.1
2017-10-23T08:11:57.584Z,1009.06
2017-10-23T08:13:59.316Z,1009.13
2017-10-23T08:14:42.531Z,1009.17
2017-10-23T08:15:24.206Z,1009.19
2017-10-23T08:16:05.252Z,1009.18
2017-10-23T08:16:48.030Z,1009.19
2017-10-23T08:17:29.972Z,1009.21
2017-10-23T08:18:14.085Z,1009.12
2017-10-23T08:18:54.287Z,1009.18
2017-10-23T08:19:35.243Z,1009.23
2017-10-23T08:20:19.528Z,1009.17
2017-10-23T08:21:01.324Z,1009.18
2017-10-23T08:21:41.910Z,1009.2
2017-10-23T08:22:24.507Z,1009.22
2017-10-23T08:23:04.678Z,1009.26
2017-10-23T08:25:08.401Z,1009.31
2017-10-23T08:26:05.758Z,1009.28
2017-10-23T08:28:17.929Z,1009.31
2017-10-23T08:29:16.010Z,1009.28
2017-10-23T08:30:18.784Z,1009.31
2017-10-23T08:37:49.347Z,1009.36
2017-10-23T08:38:52.054Z,1009.34
2017-10-23T08:39:45.660Z,1009.3
2017-10-23T08:40:39.966Z,1009.33
2017-10-23T08:41:35.071Z,1009.3
2017-10-23T08:44:01.245Z,1009.36
2017-10-23T08:44:53.425Z,1009.28
2017-10-23T08:45:49.045Z,1009.35
2017-10-23T08:48:43.756Z,1009.36
2017-10-23T08:49:40.717Z,1009.3
2017-10-23T08:50:35.916Z,1009.29
2017-10-23T08:51:33.280Z,1009.29
2017-10-23T08:52:25.697Z,1009.33
2017-10-23T08:53:17.816Z,1009.31
2017-10-23T08:54:12.022Z,1009.31
2017-10-23T08:55:06.336Z,1009.3
2017-10-23T08:55:55.066Z,1009.36
2017-10-23T08:56:35.743Z,1009.39
2017-10-23T08:57:17.037Z,1009.38
2017-10-23T08:57:59.224Z,1009.32
2017-10-23T08:58:39.643Z,1009.32
2017-10-23T08:59:22.348Z,1009.39
2017-10-23T09:00:03.051Z,1009.33
2017-10-23T09:00:44.426Z,1009.39
2017-10-23T09:01:25.444Z,1009.36
2017-10-23T09:02:13.380Z,1009.36
2017-10-23T09:03:51.428Z,1009.46
2017-10-23T09:04:32.565Z,1009.43
2017-10-23T09:05:13.650Z,1009.47
2017-10-23T09:05:54.567Z,1009.43
2017-10-23T09:06:39.224Z,1009.48
2017-10-23T09:09:18.830Z,1009.48
2017-10-23T09:10:17.394Z,1009.5
2017-10-23T09:13:51.076Z,1009.52
2017-10-23T09:14:32.542Z,1009.51
2017-10-23T09:15:13.265Z,1009.49
2017-10-23T09:15:55.367Z,1009.53
2017-10-23T09:16:38.679Z,1009.52
2017-10-23T09:17:21.718Z,1009.57
2017-10-23T09:18:02.629Z,1009.51
2017-10-23T09:18:43.338Z,1009.53
2017-10-23T09:19:25.056Z,1009.51
2017-10-23T09:20:08.788Z,1009.55
2017-10-23T09:20:52.165Z,1009.59
2017-10-23T09:21:33.274Z,1009.6
2017-10-23T09:22:14.168Z,1009.58
2017-10-23T09:22:54.662Z,1009.55
2017-10-23T09:23:36.807Z,1009.57
2017-10-23T09:24:21.203Z,1009.6
2017-10-23T09:25:02.924Z,1009.58
2017-10-23T09:25:43.258Z,1009.59
2017-10-23T09:26:23.997Z,1009.57
2017-10-23T09:27:04.946Z,1009.57
2017-10-23T09:27:46.299Z,1009.54
2017-10-23T09:33:32.069Z,1009.52
2017-10-23T09:34:28.018Z,1009.56
2017-10-23T09:35:25.247Z,1009.55
2017-10-23T09:36:22.563Z,1009.57
2017-10-23T09:37:06.375Z,1009.6
2017-10-23T09:37:48.140Z,1009.62
2017-10-23T09:38:28.644Z,1009.57
2017-10-23T09:39:10.028Z,1009.59
2017-10-23T09:39:58.793Z,1009.57
2017-10-23T09:40:39.576Z,1009.59
2017-10-23T09:46:12.447Z,1009.56
2017-10-23T09:47:11.064Z,1009.65
2017-10-23T09:48:06.960Z,1009.62
2017-10-23T09:49:03.455Z,1009.51
2017-10-23T09:49:58.172Z,1009.64
2017-10-23T09:50:53.151Z,1009.68
2017-10-23T09:51:46.652Z,1009.67
2017-10-23T09:52:27.631Z,1009.66
2017-10-23T09:53:09.317Z,1009.66
2017-10-23T09:53:50.264Z,1009.66
2017-10-23T09:54:33.449Z,1009.62
2017-10-23T09:55:13.842Z,1009.68
2017-10-23T09:55:54.627Z,1009.69
2017-10-23T09:56:36.765Z,1009.68